Time;durP1;ratioP1;P1;durP2;ratioP2;P2;SDS_P1;SDS_P2;PMS_P1;PMS_P2;Temp;Humidity;BMP_temperature;BMP_pressure;BME280_temperature;BME280_humidity;BME280_pressure;Samples;Min_cycle;Max_cycle;Signal;HPM_P1;HPM_P2
2022/05/05 00:00:49;;;;;;;9.82;4.20;;;12.40;66.70;;;;;;5056220;28;20076;-73
2022/05/05 00:03:14;;;;;;;12.20;4.90;;;12.40;66.90;;;;;;5074257;28;20028;-73
2022/05/05 00:05:40;;;;;;;11.30;5.15;;;12.30;66.70;;;;;;5074168;28;20123;-73
2022/05/05 00:08:08;;;;;;;10.13;4.60;;;12.30;66.80;;;;;;5074289;28;20025;-73
2022/05/05 00:16:03;;;;;;;12.25;4.95;;;12.30;67.10;;;;;;5074584;28;20047;-72
2022/05/05 00:18:29;;;;;;;12.50;4.57;;;12.40;67.20;;;;;;5074424;28;20029;-73
2022/05/05 00:20:55;;;;;;;12.57;5.18;;;12.30;67.30;;;;;;5056133;28;20036;-73
2022/05/05 00:23:20;;;;;;;12.38;4.85;;;12.30;67.40;;;;;;5073998;28;20036;-73
2022/05/05 00:25:46;;;;;;;11.18;5.13;;;12.30;67.60;;;;;;5073753;28;20036;-73
2022/05/05 00:28:11;;;;;;;11.38;4.55;;;12.30;67.70;;;;;;5056172;28;20116;-73
2022/05/05 00:30:37;;;;;;;11.60;4.85;;;12.30;67.90;;;;;;5056165;28;20040;-73
2022/05/05 00:33:03;;;;;;;10.88;4.65;;;12.30;68.00;;;;;;5074041;28;20024;-73
2022/05/05 00:35:28;;;;;;;11.88;5.38;;;12.30;68.20;;;;;;5073863;28;20063;-73
2022/05/05 00:37:54;;;;;;;10.68;5.20;;;12.30;68.20;;;;;;5073592;28;20447;-73
2022/05/05 00:40:19;;;;;;;12.55;4.88;;;12.30;68.60;;;;;;5073683;28;20036;-73
2022/05/05 00:42:46;;;;;;;12.25;5.28;;;12.20;68.80;;;;;;5038530;28;20032;-73
2022/05/05 00:45:11;;;;;;;17.95;5.68;;;12.10;68.90;;;;;;5074015;28;20473;-73
2022/05/05 00:47:37;;;;;;;12.75;5.07;;;12.10;69.10;;;;;;5073870;28;20063;-73
2022/05/05 00:50:03;;;;;;;9.68;4.93;;;12.10;69.20;;;;;;5073519;28;20032;-73
2022/05/05 00:52:28;;;;;;;12.85;4.85;;;12.10;69.20;;;;;;5073997;28;20453;-73
2022/05/05 00:54:58;;;;;;;13.00;4.78;;;12.00;69.30;;;;;;5073892;28;20088;-73
2022/05/05 00:57:24;;;;;;;10.20;4.78;;;11.90;69.50;;;;;;5073562;28;20033;-73
2022/05/05 00:59:52;;;;;;;11.63;5.15;;;11.90;69.60;;;;;;5073026;28;20052;-73
2022/05/05 01:02:19;;;;;;;10.50;5.22;;;11.90;69.70;;;;;;5073675;28;20173;-73
2022/05/05 01:04:46;;;;;;;10.23;4.57;;;11.90;69.80;;;;;;5073265;28;20039;-73
2022/05/05 01:07:13;;;;;;;12.30;5.65;;;11.80;69.90;;;;;;5055242;28;20021;-73
2022/05/05 01:09:40;;;;;;;13.23;4.90;;;11.80;70.00;;;;;;5055282;28;20026;-73
2022/05/05 01:12:06;;;;;;;12.25;5.53;;;11.80;70.10;;;;;;5073200;28;20080;-73
2022/05/05 01:14:33;;;;;;;9.75;5.05;;;11.70;70.20;;;;;;5073488;28;20034;-73
2022/05/05 01:16:59;;;;;;;9.48;4.03;;;11.60;70.30;;;;;;5072967;28;20095;-73
2022/05/05 01:19:25;;;;;;;9.75;4.80;;;11.70;70.50;;;;;;5055350;28;20093;-73
2022/05/05 01:21:55;;;;;;;10.60;4.50;;;11.70;70.60;;;;;;5073285;28;20536;-74
2022/05/05 01:28:10;;;;;;;13.43;5.28;;;11.70;70.70;;;;;;5055243;28;20021;-73
2022/05/05 01:29:52;;;;;;;9.68;5.00;;;11.70;70.90;;;;;;5073363;28;20116;-73
2022/05/05 01:32:18;;;;;;;9.30;4.57;;;11.60;70.90;;;;;;5073089;28;20048;-73
2022/05/05 01:34:43;;;;;;;9.27;4.60;;;11.60;71.10;;;;;;5073033;28;20388;-73
2022/05/05 01:37:09;;;;;;;9.30;4.27;;;11.50;71.20;;;;;;5072982;28;20100;-72
2022/05/05 01:39:34;;;;;;;12.80;4.80;;;11.60;71.50;;;;;;5073056;28;20032;-72
2022/05/05 01:42:00;;;;;;;11.67;4.70;;;11.40;71.70;;;;;;5072853;28;20029;-73
2022/05/05 01:44:26;;;;;;;12.13;5.30;;;11.30;72.00;;;;;;5072849;28;20020;-73
2022/05/05 01:46:54;;;;;;;9.47;4.67;;;11.30;72.10;;;;;;5072947;28;20039;-72
2022/05/05 01:49:20;;;;;;;13.07;5.03;;;11.20;72.30;;;;;;5072754;28;20044;-73
2022/05/05 01:51:46;;;;;;;13.10;5.07;;;11.20;72.50;;;;;;5055625;28;20032;-73
2022/05/05 01:54:12;;;;;;;15.20;6.40;;;11.20;72.60;;;;;;5057554;28;20068;-73
2022/05/05 01:56:37;;;;;;;13.27;5.17;;;11.20;72.60;;;;;;5076626;28;20032;-73
2022/05/05 01:59:03;;;;;;;12.83;4.97;;;11.10;72.60;;;;;;5076996;28;20032;-72
2022/05/05 02:01:29;;;;;;;10.63;4.37;;;10.90;72.50;;;;;;5042284;28;20117;-73
2022/05/05 02:03:54;;;;;;;10.53;5.03;;;11.00;72.70;;;;;;5076787;28;20036;-73
2022/05/05 02:06:20;;;;;;;11.97;4.70;;;11.00;72.80;;;;;;5042099;28;20034;-73
2022/05/05 02:08:45;;;;;;;10.20;5.03;;;11.00;72.90;;;;;;5077179;28;20427;-73
2022/05/05 02:11:11;;;;;;;10.93;4.40;;;11.00;72.90;;;;;;5076780;28;20040;-72
2022/05/05 02:13:37;;;;;;;10.00;3.90;;;11.00;73.70;;;;;;5076872;28;20039;-73
2022/05/05 02:16:03;;;;;;;10.23;4.40;;;10.90;73.10;;;;;;5042544;28;20090;-73
2022/05/05 02:18:29;;;;;;;11.53;5.20;;;10.90;73.20;;;;;;5058375;28;20032;-72
2022/05/05 02:20:54;;;;;;;9.87;4.40;;;10.90;73.20;;;;;;5076851;28;20044;-72
2022/05/05 02:23:20;;;;;;;9.40;4.07;;;10.80;73.30;;;;;;5076363;28;20028;-73
2022/05/05 02:25:46;;;;;;;12.70;4.83;;;10.90;73.50;;;;;;5076435;28;20059;-72
2022/05/05 02:28:11;;;;;;;10.77;5.00;;;10.80;73.60;;;;;;5076024;28;20358;-73
2022/05/05 02:30:37;;;;;;;11.17;4.97;;;10.80;73.80;;;;;;5076619;28;20029;-73
2022/05/05 02:33:03;;;;;;;10.30;4.07;;;10.80;74.00;;;;;;5058417;28;20024;-72
2022/05/05 02:35:29;;;;;;;13.00;5.20;;;10.70;74.20;;;;;;5076475;28;20096;-73
2022/05/05 02:40:39;;;;;;;8.32;4.75;;;10.60;74.30;;;;;;5075967;28;20036;-72
2022/05/05 02:43:06;;;;;;;11.10;4.43;;;10.60;74.40;;;;;;5075870;28;20029;-72
2022/05/05 02:45:32;;;;;;;11.07;4.90;;;10.60;74.50;;;;;;5075969;28;20012;-72
2022/05/05 02:47:58;;;;;;;12.90;5.03;;;10.50;74.60;;;;;;5076128;28;20098;-73
2022/05/05 02:50:24;;;;;;;15.47;5.23;;;10.50;74.70;;;;;;5075964;28;20039;-73
2022/05/05 02:52:50;;;;;;;10.33;4.70;;;10.50;74.90;;;;;;5076194;28;20033;-73
2022/05/05 02:55:15;;;;;;;11.20;5.27;;;10.50;75.10;;;;;;5076045;28;20052;-73
2022/05/05 02:57:41;;;;;;;10.87;5.10;;;10.40;75.10;;;;;;5075844;28;20037;-73
2022/05/05 03:00:11;;;;;;;11.17;5.20;;;10.40;75.20;;;;;;5075640;28;20059;-73
2022/05/05 03:02:37;;;;;;;10.43;4.87;;;10.40;75.30;;;;;;5075450;28;20025;-72
2022/05/05 03:05:03;;;;;;;12.13;5.10;;;10.40;75.40;;;;;;5057409;28;20031;-73
2022/05/05 03:07:29;;;;;;;10.17;4.90;;;10.30;75.40;;;;;;5057680;28;20024;-73
2022/05/05 03:09:55;;;;;;;13.60;5.23;;;10.30;75.50;;;;;;5041543;28;20024;-73
2022/05/05 03:12:21;;;;;;;13.10;4.70;;;10.30;75.70;;;;;;5075617;28;20058;-72
2022/05/05 03:14:47;;;;;;;14.53;5.73;;;10.30;75.90;;;;;;5075413;28;20063;-73
2022/05/05 03:17:14;;;;;;;9.80;4.83;;;10.30;76.20;;;;;;5075541;28;20144;-73
2022/05/05 03:19:41;;;;;;;8.67;5.17;;;10.30;76.30;;;;;;5075175;28;20099;-72
2022/05/05 03:22:06;;;;;;;14.67;6.03;;;10.30;76.40;;;;;;5057118;28;20028;-73
2022/05/05 03:24:32;;;;;;;11.33;5.13;;;10.30;76.60;;;;;;5057483;28;20035;-73
2022/05/05 03:27:00;;;;;;;9.77;5.00;;;10.20;76.80;;;;;;5075151;28;20029;-72
2022/05/05 03:29:25;;;;;;;11.80;5.73;;;10.30;76.90;;;;;;5057663;28;20480;-72
2022/05/05 03:31:51;;;;;;;10.77;4.77;;;10.30;77.00;;;;;;5074937;28;20025;-73
2022/05/05 03:34:17;;;;;;;12.30;5.33;;;10.30;77.10;;;;;;5057240;28;20025;-74
2022/05/05 03:36:43;;;;;;;12.90;5.60;;;10.20;77.10;;;;;;5074859;28;20108;-73
2022/05/05 03:39:08;;;;;;;10.17;5.10;;;10.20;77.20;;;;;;5056769;28;20028;-73
2022/05/05 03:41:35;;;;;;;10.43;4.87;;;10.20;77.20;;;;;;5056936;28;20041;-73
2022/05/05 03:44:02;;;;;;;11.77;4.73;;;10.20;77.20;;;;;;5074916;28;20031;-72
2022/05/05 03:46:30;;;;;;;10.77;5.47;;;10.20;77.30;;;;;;5074746;28;20491;-72
2022/05/05 03:48:56;;;;;;;12.90;5.73;;;10.20;77.40;;;;;;5056785;28;20023;-73
2022/05/05 03:51:22;;;;;;;10.73;5.30;;;10.10;77.50;;;;;;5056963;28;20028;-72
2022/05/05 03:53:47;;;;;;;10.87;4.53;;;10.10;77.70;;;;;;5075053;28;20021;-73
2022/05/05 03:56:13;;;;;;;11.13;5.43;;;10.10;77.90;;;;;;5056619;28;20499;-72
2022/05/05 03:58:39;;;;;;;11.83;5.67;;;10.20;78.10;;;;;;5040295;28;20029;-72
2022/05/05 04:01:05;;;;;;;12.17;5.07;;;10.10;78.10;;;;;;5074266;28;20056;-73
2022/05/05 04:03:31;;;;;;;11.30;5.07;;;10.00;78.20;;;;;;5074947;28;20522;-73
2022/05/05 04:06:04;;;;;;;11.60;5.57;;;10.00;78.30;;;;;;5056470;28;20059;-72
2022/05/05 04:08:30;;;;;;;11.20;5.57;;;9.90;79.10;;;;;;5056316;28;20052;-72
2022/05/05 04:10:56;;;;;;;11.57;5.47;;;10.10;78.60;;;;;;5056317;28;20162;-72
2022/05/05 04:13:22;;;;;;;9.77;4.70;;;10.10;79.20;;;;;;5056172;28;20032;-72
2022/05/05 04:15:48;;;;;;;10.30;5.63;;;10.10;78.70;;;;;;5056154;28;20028;-72
2022/05/05 04:18:14;;;;;;;11.53;5.63;;;10.20;78.70;;;;;;5055232;28;20854;-73
2022/05/05 04:20:44;;;;;;;15.73;5.63;;;10.20;78.80;;;;;;5056281;28;20361;-72
2022/05/05 04:23:10;;;;;;;12.93;5.17;;;10.00;78.80;;;;;;5074356;28;20477;-72
2022/05/05 04:25:40;;;;;;;10.57;4.80;;;10.20;78.90;;;;;;5056035;28;20020;-73
2022/05/05 04:28:10;;;;;;;13.73;5.93;;;10.10;78.90;;;;;;5056339;28;20025;-71
2022/05/05 04:30:37;;;;;;;14.33;5.57;;;10.20;79.00;;;;;;5055845;28;20020;-71
2022/05/05 04:33:03;;;;;;;13.03;5.33;;;10.20;79.10;;;;;;5073689;28;20492;-72
2022/05/05 04:35:30;;;;;;;9.97;5.60;;;10.30;79.20;;;;;;5055842;28;20055;-72
2022/05/05 04:37:55;;;;;;;18.93;5.83;;;10.30;79.30;;;;;;5039286;28;20029;-72
2022/05/05 04:40:21;;;;;;;12.27;5.40;;;10.30;79.30;;;;;;5055928;28;20025;-71
2022/05/05 04:42:47;;;;;;;19.93;5.40;;;10.40;79.50;;;;;;5056331;28;20029;-72
2022/05/05 04:45:13;;;;;;;14.07;5.93;;;10.40;79.50;;;;;;5022814;28;20027;-72
2022/05/05 04:47:38;;;;;;;11.50;5.03;;;10.40;79.70;;;;;;5039056;28;20025;-72
2022/05/05 04:50:05;;;;;;;12.23;5.53;;;10.40;79.70;;;;;;5039294;28;20028;-71
2022/05/05 04:52:32;;;;;;;10.83;6.10;;;10.50;79.80;;;;;;5055875;28;20097;-72
2022/05/05 04:54:58;;;;;;;11.23;5.37;;;10.50;79.90;;;;;;5073504;28;20503;-72
2022/05/05 04:57:24;;;;;;;12.63;5.63;;;10.50;80.00;;;;;;5055426;28;20025;-72
2022/05/05 04:59:50;;;;;;;12.77;5.63;;;10.50;80.00;;;;;;5073186;28;20032;-74
2022/05/05 05:02:16;;;;;;;11.57;5.60;;;10.60;80.20;;;;;;5073605;28;20029;-73
2022/05/05 05:04:41;;;;;;;14.13;5.80;;;10.60;80.30;;;;;;5073704;28;20042;-73
2022/05/05 05:07:07;;;;;;;12.33;5.83;;;10.60;80.30;;;;;;5069973;28;20033;-73
2022/05/05 05:09:34;;;;;;;13.80;6.20;;;10.50;80.30;;;;;;5054966;28;20017;-73
2022/05/05 05:12:00;;;;;;;11.20;5.80;;;10.60;80.40;;;;;;5035375;28;20029;-73
2022/05/05 05:14:26;;;;;;;11.17;6.13;;;10.70;80.50;;;;;;5053207;28;20033;-72
2022/05/05 05:16:52;;;;;;;11.83;5.37;;;10.60;80.60;;;;;;5053006;28;20025;-73
2022/05/05 05:19:17;;;;;;;15.50;5.77;;;10.70;80.60;;;;;;5053495;28;20109;-73
2022/05/05 05:21:43;;;;;;;14.60;5.53;;;10.60;80.60;;;;;;5052965;28;20025;-73
2022/05/05 05:24:09;;;;;;;10.57;6.27;;;10.70;80.70;;;;;;5053328;28;20025;-73
2022/05/05 05:26:34;;;;;;;10.80;6.27;;;10.60;80.70;;;;;;5053187;28;20017;-73
2022/05/05 05:29:00;;;;;;;14.33;6.00;;;10.60;80.80;;;;;;5037287;28;20028;-73
2022/05/05 05:31:26;;;;;;;11.97;6.50;;;10.70;81.00;;;;;;5039270;28;20032;-73
2022/05/05 05:33:52;;;;;;;10.73;6.43;;;10.70;81.00;;;;;;5023181;28;20037;-72
2022/05/05 05:36:18;;;;;;;15.43;6.83;;;10.70;81.10;;;;;;5023157;28;20021;-73
2022/05/05 05:38:44;;;;;;;13.73;6.63;;;10.70;81.20;;;;;;5071110;28;20105;-73
2022/05/05 05:41:10;;;;;;;14.80;7.03;;;10.70;81.30;;;;;;5039402;28;20115;-73
2022/05/05 05:43:35;;;;;;;20.80;7.20;;;10.70;81.40;;;;;;5050223;28;20464;-74
2022/05/05 05:46:01;;;;;;;16.00;7.47;;;10.80;81.20;;;;;;5022947;28;20091;-73
2022/05/05 05:48:27;;;;;;;18.10;7.40;;;10.90;81.80;;;;;;5066421;28;20064;-73
2022/05/05 05:50:52;;;;;;;14.13;7.43;;;10.80;81.10;;;;;;5059439;28;20120;-72
2022/05/05 05:53:18;;;;;;;16.10;7.50;;;10.90;81.10;;;;;;5038353;28;20377;-72
2022/05/05 05:55:44;;;;;;;14.13;7.23;;;10.90;81.70;;;;;;5038753;28;20032;-73
2022/05/05 05:58:09;;;;;;;12.87;7.27;;;10.90;81.10;;;;;;5039243;28;20037;-73
2022/05/05 06:00:36;;;;;;;13.10;7.47;;;11.10;81.30;;;;;;5056758;28;20049;-72
2022/05/05 06:05:46;;;;;;;14.60;7.57;;;11.10;81.50;;;;;;5057997;28;20415;-71
2022/05/05 06:08:12;;;;;;;18.10;7.30;;;11.10;81.50;;;;;;5026095;28;20029;-72
2022/05/05 06:10:37;;;;;;;15.25;8.30;;;11.10;81.60;;;;;;5043698;28;20110;-73
2022/05/05 06:13:03;;;;;;;15.40;8.18;;;11.20;81.70;;;;;;5037817;28;20052;-73
2022/05/05 06:15:30;;;;;;;17.20;9.25;;;11.20;81.80;;;;;;5031432;28;20029;-73
2022/05/05 06:17:56;;;;;;;19.77;10.20;;;11.30;81.80;;;;;;5080467;28;20031;-73
2022/05/05 06:20:22;;;;;;;16.17;8.73;;;11.30;81.80;;;;;;5062773;28;20153;-73
2022/05/05 06:22:50;;;;;;;16.65;8.30;;;11.40;81.90;;;;;;5063475;28;20489;-73
2022/05/05 06:25:16;;;;;;;16.88;9.13;;;11.40;81.70;;;;;;5063406;28;20024;-73
2022/05/05 06:27:42;;;;;;;21.50;9.52;;;11.50;81.50;;;;;;5063507;28;20485;-73
2022/05/05 06:30:13;;;;;;;19.92;8.52;;;11.50;81.30;;;;;;5063582;28;20025;-73
2022/05/05 06:32:42;;;;;;;17.13;7.90;;;11.60;81.10;;;;;;5077840;28;20388;-73
2022/05/05 06:35:09;;;;;;;15.57;8.13;;;11.70;81.00;;;;;;5076506;28;20381;-73
2022/05/05 06:37:35;;;;;;;16.85;8.13;;;11.70;80.90;;;;;;5057951;28;20097;-73
2022/05/05 06:40:03;;;;;;;20.55;8.98;;;11.60;80.70;;;;;;5061360;28;20074;-73
2022/05/05 06:42:29;;;;;;;15.00;8.60;;;11.80;80.60;;;;;;5046947;28;20022;-72
2022/05/05 06:44:55;;;;;;;17.02;8.85;;;11.80;80.40;;;;;;5091123;28;20024;-73
2022/05/05 06:47:21;;;;;;;15.32;7.85;;;11.90;80.30;;;;;;5095971;28;20036;-73
2022/05/05 06:49:46;;;;;;;16.80;8.43;;;11.90;80.10;;;;;;5071296;28;20082;-73
2022/05/05 06:52:12;;;;;;;17.80;8.70;;;11.90;79.90;;;;;;5052589;28;20028;-73
2022/05/05 06:54:38;;;;;;;13.57;8.15;;;12.00;79.90;;;;;;5059508;28;20470;-73
2022/05/05 06:57:04;;;;;;;19.63;9.15;;;12.10;79.80;;;;;;5041173;28;20099;-73
2022/05/05 06:59:30;;;;;;;17.73;8.32;;;12.10;79.60;;;;;;5054701;28;20032;-73
2022/05/05 07:02:00;;;;;;;23.55;8.07;;;12.20;79.60;;;;;;5060790;28;20534;-73
2022/05/05 07:07:14;;;;;;;20.80;8.98;;;12.30;79.40;;;;;;5096143;28;20515;-73
2022/05/05 07:12:25;;;;;;;20.13;9.20;;;12.40;79.20;;;;;;5080393;28;20039;-73
2022/05/05 07:14:51;;;;;;;22.27;8.55;;;12.60;79.10;;;;;;5095479;28;20024;-73
2022/05/05 07:17:17;;;;;;;18.25;8.45;;;12.60;79.10;;;;;;5077153;28;20035;-73
2022/05/05 07:19:42;;;;;;;23.13;8.38;;;12.60;78.90;;;;;;5060526;28;20020;-73
2022/05/05 07:22:08;;;;;;;16.77;8.73;;;12.70;78.70;;;;;;5060599;28;20059;-70
2022/05/05 07:24:34;;;;;;;17.58;8.30;;;12.80;78.20;;;;;;5077692;28;20024;-73
2022/05/05 07:27:01;;;;;;;19.65;9.25;;;12.90;78.10;;;;;;5060176;28;20473;-73
2022/05/05 07:29:28;;;;;;;23.15;9.38;;;13.00;78.00;;;;;;5053532;28;20040;-73
2022/05/05 07:31:53;;;;;;;16.52;7.68;;;13.10;77.80;;;;;;5036720;28;20029;-73
2022/05/05 07:34:19;;;;;;;18.95;7.95;;;13.20;77.70;;;;;;5020959;28;20430;-73
2022/05/05 07:36:45;;;;;;;21.85;9.30;;;13.30;77.40;;;;;;5037262;28;20032;-73
2022/05/05 07:39:11;;;;;;;20.02;8.07;;;13.50;77.20;;;;;;5037036;28;20163;-74
2022/05/05 07:41:37;;;;;;;18.55;8.52;;;13.60;76.90;;;;;;5053162;28;20028;-74
2022/05/05 07:44:05;;;;;;;13.35;7.63;;;13.80;76.60;;;;;;5074671;28;20020;-73
2022/05/05 07:46:32;;;;;;;14.45;7.80;;;13.90;76.30;;;;;;5074638;28;20052;-73
2022/05/05 07:48:58;;;;;;;14.30;7.57;;;14.10;75.80;;;;;;5074891;28;20477;-73
2022/05/05 07:51:24;;;;;;;16.27;7.78;;;14.30;75.20;;;;;;5039785;28;20028;-73
2022/05/05 07:56:33;;;;;;;16.63;7.40;;;14.60;74.10;;;;;;5065680;28;20093;-73
2022/05/05 07:58:59;;;;;;;18.50;7.70;;;14.80;73.80;;;;;;5076646;28;20032;-73
2022/05/05 08:01:25;;;;;;;13.82;7.32;;;14.90;73.30;;;;;;5042701;28;20048;-74
2022/05/05 08:03:50;;;;;;;14.18;6.97;;;15.00;72.90;;;;;;5094672;28;20484;-74
2022/05/05 08:06:16;;;;;;;16.02;6.95;;;15.10;72.40;;;;;;5094761;28;20024;-73
2022/05/05 08:08:41;;;;;;;14.35;6.65;;;15.30;71.90;;;;;;5059785;28;20024;-73
2022/05/05 08:11:07;;;;;;;11.70;6.57;;;15.40;71.10;;;;;;5060179;28;20081;-81
2022/05/05 08:13:33;;;;;;;15.60;7.05;;;15.50;70.70;;;;;;5059995;28;20380;-82
2022/05/05 08:15:59;;;;;;;12.20;6.13;;;15.60;70.00;;;;;;5076455;28;20123;-82
2022/05/05 08:18:25;;;;;;;15.23;5.65;;;15.80;69.30;;;;;;5094318;28;20090;-83
2022/05/05 08:20:51;;;;;;;11.63;5.78;;;15.90;68.70;;;;;;5094284;28;20419;-83
2022/05/05 08:23:17;;;;;;;11.50;4.43;;;16.00;68.20;;;;;;5094603;28;20016;-82
2022/05/05 08:28:29;;;;;;;10.75;3.67;;;16.30;65.80;;;;;;5094899;28;20144;-82
2022/05/05 08:30:56;;;;;;;10.60;4.15;;;16.50;65.00;;;;;;5059805;28;20126;-82
2022/05/05 08:33:27;;;;;;;13.05;5.05;;;16.60;64.70;;;;;;5076019;28;20039;-81
2022/05/05 08:35:59;;;;;;;9.93;4.75;;;16.70;63.50;;;;;;5094024;28;20483;-80
2022/05/05 08:38:25;;;;;;;13.27;4.60;;;16.80;63.70;;;;;;5075665;28;20028;-82
2022/05/05 08:40:51;;;;;;;16.33;5.15;;;17.00;62.50;;;;;;5093842;28;20483;-82
2022/05/05 08:43:17;;;;;;;11.40;4.68;;;17.10;62.10;;;;;;5076100;28;20056;-81
2022/05/05 08:45:45;;;;;;;13.90;6.35;;;17.20;61.80;;;;;;5093685;28;20008;-81
2022/05/05 08:48:12;;;;;;;14.45;7.07;;;17.30;61.40;;;;;;5076506;28;20436;-81
2022/05/05 08:50:40;;;;;;;12.05;5.82;;;17.40;61.10;;;;;;5094143;28;20389;-81
2022/05/05 08:53:07;;;;;;;11.20;5.90;;;17.60;60.80;;;;;;5087248;28;20025;-81
2022/05/05 08:55:34;;;;;;;11.15;5.90;;;17.70;60.50;;;;;;5084901;28;20029;-82
2022/05/05 08:58:04;;;;;;;12.93;6.00;;;17.80;60.30;;;;;;5055233;28;20115;-82
2022/05/05 09:00:30;;;;;;;14.75;5.82;;;17.90;59.90;;;;;;5055704;28;20033;-81
2022/05/05 09:02:58;;;;;;;13.95;6.25;;;17.90;59.70;;;;;;5072916;28;20135;-81
2022/05/05 09:05:42;;;;;;;9.88;5.55;;;18.10;59.50;;;;;;5073709;28;20035;-82
2022/05/05 09:08:11;;;;;;;12.95;6.35;;;18.10;59.00;;;;;;5055516;28;20016;-84
2022/05/05 09:10:44;;;;;;;12.20;6.05;;;18.20;58.70;;;;;;5055386;28;20032;-83
2022/05/05 09:13:10;;;;;;;11.68;5.95;;;18.30;58.50;;;;;;5073364;28;20121;-83
2022/05/05 09:15:37;;;;;;;15.73;7.32;;;18.30;58.20;;;;;;5073381;28;20083;-82
2022/05/05 09:18:17;;;;;;;22.98;9.93;;;18.30;58.10;;;;;;5055363;28;20032;-81
2022/05/05 09:20:45;;;;;;;13.15;8.05;;;18.40;58.00;;;;;;5055268;28;20078;-82
2022/05/05 09:23:32;;;;;;;15.07;7.50;;;18.50;58.00;;;;;;5055644;28;20036;-83
2022/05/05 09:25:59;;;;;;;15.05;8.50;;;18.60;58.00;;;;;;5073250;28;20024;-83
2022/05/05 09:28:30;;;;;;;15.77;8.57;;;18.70;58.60;;;;;;5055374;28;20388;-82
2022/05/05 09:31:10;;;;;;;14.82;7.82;;;18.80;57.70;;;;;;5073656;28;20107;-83
2022/05/05 09:33:40;;;;;;;17.88;8.02;;;18.80;57.20;;;;;;5073240;28;20053;-83
2022/05/05 09:36:07;;;;;;;14.30;8.00;;;18.80;57.20;;;;;;5073141;28;20366;-83
2022/05/05 09:39:04;;;;;;;14.82;7.90;;;18.70;57.00;;;;;;5073011;28;20442;-83
2022/05/05 09:41:42;;;;;;;14.35;8.90;;;18.80;56.90;;;;;;5072874;28;20025;-83
2022/05/05 09:44:16;;;;;;;14.02;7.10;;;18.90;57.00;;;;;;5073131;28;20028;-83
2022/05/05 09:46:46;;;;;;;;;;;18.90;56.90;;;;;;5085564;28;20376;-75
2022/05/05 09:49:13;;;;;;;16.13;7.93;;;18.90;56.80;;;;;;5075817;28;19908;-76
2022/05/05 09:57:39;;;;;;;21.38;8.52;;;19.00;56.70;;;;;;5093486;28;20420;-73
2022/05/05 09:57:40;;;;;;;15.45;8.90;;;19.10;56.30;;;;;;5070642;28;20094;-73
2022/05/05 10:00:24;;;;;;;15.43;8.30;;;19.10;56.90;;;;;;5076877;28;20426;-73
2022/05/05 10:05:45;;;;;;;15.02;7.60;;;19.30;56.10;;;;;;5073054;28;20027;-74
2022/05/05 10:08:14;;;;;;;16.30;9.95;;;19.40;56.70;;;;;;5072698;28;20441;-75
2022/05/05 10:10:42;;;;;;;14.45;8.80;;;19.50;55.90;;;;;;5072945;28;20413;-74
2022/05/05 10:13:10;;;;;;;14.98;9.45;;;19.60;55.70;;;;;;5038349;28;20519;-76
2022/05/05 10:15:37;;;;;;;17.92;10.05;;;19.70;55.70;;;;;;5056037;28;20032;-74
2022/05/05 10:18:04;;;;;;;15.07;10.88;;;19.90;55.70;;;;;;5076456;28;20090;-74
2022/05/05 10:20:33;;;;;;;15.18;9.55;;;20.00;55.60;;;;;;5058555;28;20033;-75
2022/05/05 10:23:12;;;;;;;14.63;9.25;;;20.20;55.40;;;;;;5076622;28;20032;-74
2022/05/05 10:25:39;;;;;;;15.15;9.43;;;20.30;55.20;;;;;;5058278;28;20059;-76
2022/05/05 10:28:52;;;;;;;16.50;10.15;;;20.50;55.10;;;;;;5076640;28;20093;-76
2022/05/05 10:31:30;;;;;;;16.63;9.85;;;20.70;54.70;;;;;;5054598;28;20041;-75
2022/05/05 10:34:16;;;;;;;16.17;10.48;;;20.90;54.30;;;;;;5076043;28;20028;-74
2022/05/05 10:37:01;;;;;;;15.73;9.70;;;21.00;54.10;;;;;;5061060;28;20032;-75
2022/05/05 10:39:41;;;;;;;18.55;10.55;;;21.20;53.90;;;;;;5058229;28;20036;-74
2022/05/05 10:42:17;;;;;;;14.63;9.45;;;21.30;53.50;;;;;;5075833;28;20025;-74
2022/05/05 10:45:10;;;;;;;14.48;10.15;;;21.50;53.60;;;;;;5058090;28;20090;-74
2022/05/05 10:47:52;;;;;;;14.52;8.50;;;21.90;53.20;;;;;;5067463;28;20064;-75
2022/05/05 10:50:56;;;;;;;13.40;8.85;;;22.20;52.90;;;;;;5076309;28;20021;-75
2022/05/05 10:53:37;;;;;;;16.73;9.48;;;22.40;52.20;;;;;;5058360;28;20025;-74
2022/05/05 10:56:05;;;;;;;13.82;8.00;;;22.50;51.70;;;;;;5057890;28;20020;-75
2022/05/05 10:58:56;;;;;;;14.88;9.90;;;22.70;51.60;;;;;;5075733;28;20028;-77
2022/05/05 11:01:22;;;;;;;15.07;9.65;;;22.90;51.00;;;;;;5075677;28;20031;-75
2022/05/05 11:04:28;;;;;;;15.38;9.77;;;23.00;50.60;;;;;;5075703;28;20079;-75
2022/05/05 11:07:16;;;;;;;15.75;9.30;;;23.10;50.20;;;;;;5061101;28;20040;-74
2022/05/05 11:09:41;;;;;;;18.40;9.18;;;23.20;49.90;;;;;;5058069;28;20082;-75
2022/05/05 11:12:30;;;;;;;13.68;8.98;;;23.30;49.80;;;;;;5057525;28;20020;-75
2022/05/05 11:23:58;;;;;;;11.32;7.40;;;24.40;48.30;;;;;;5075397;28;20051;-76
2022/05/05 11:26:23;;;;;;;11.30;8.07;;;24.80;48.00;;;;;;5074498;28;20047;-76
2022/05/05 11:28:50;;;;;;;14.68;10.05;;;24.90;47.00;;;;;;5040741;28;20473;-75
2022/05/05 11:31:28;;;;;;;14.10;7.95;;;25.00;46.60;;;;;;5057144;28;20025;-75
2022/05/05 11:34:03;;;;;;;12.00;7.85;;;25.00;46.20;;;;;;5057272;28;20029;-75
2022/05/05 11:36:31;;;;;;;15.25;9.35;;;25.20;46.10;;;;;;5057841;28;20154;-75
2022/05/05 11:38:57;;;;;;;12.57;8.30;;;25.20;46.00;;;;;;5057481;28;20032;-74
2022/05/05 11:41:24;;;;;;;16.05;9.35;;;25.30;45.80;;;;;;5056893;28;20413;-75
2022/05/05 11:46:36;;;;;;;14.38;8.95;;;25.50;45.20;;;;;;5075026;28;20491;-76
2022/05/05 11:49:01;;;;;;;14.07;7.45;;;25.70;44.80;;;;;;5040314;28;20032;-75
2022/05/05 11:51:29;;;;;;;11.32;7.22;;;25.70;44.60;;;;;;5056748;28;20031;-75
2022/05/05 11:54:10;;;;;;;13.13;6.30;;;25.90;44.40;;;;;;5040241;28;20481;-76
2022/05/05 11:56:37;;;;;;;10.60;6.43;;;25.90;43.80;;;;;;5074397;28;20016;-75
2022/05/05 12:02:16;;;;;;;7.70;5.45;;;26.20;43.40;;;;;;5073778;28;20068;-75
2022/05/05 12:04:44;;;;;;;10.32;7.20;;;26.30;43.30;;;;;;5074451;28;20021;-75
2022/05/05 12:07:22;;;;;;;14.43;8.50;;;26.30;43.50;;;;;;5056690;28;20472;-76
2022/05/05 12:09:52;;;;;;;12.52;7.07;;;26.50;43.10;;;;;;5074479;28;20055;-75
2022/05/05 12:12:23;;;;;;;10.88;6.53;;;26.60;43.00;;;;;;5024242;28;20021;-74
2022/05/05 12:14:55;;;;;;;11.75;7.03;;;26.80;42.80;;;;;;5056064;28;20024;-74
2022/05/05 12:17:26;;;;;;;9.90;6.53;;;27.00;43.40;;;;;;5057220;28;20032;-78
2022/05/05 12:19:55;;;;;;;11.05;7.45;;;27.30;42.50;;;;;;5056014;28;20381;-79
2022/05/05 12:22:29;;;;;;;13.38;7.53;;;27.50;42.20;;;;;;5055996;28;20377;-76
2022/05/05 12:24:57;;;;;;;10.82;7.40;;;27.50;41.60;;;;;;5074236;28;20032;-76
2022/05/05 12:27:25;;;;;;;10.82;8.18;;;27.40;41.30;;;;;;5056045;28;20024;-75
2022/05/05 12:29:51;;;;;;;12.45;8.88;;;27.20;41.20;;;;;;5039642;28;20025;-77
2022/05/05 12:32:18;;;;;;;16.30;11.00;;;27.00;41.20;;;;;;5056191;28;20480;-77
2022/05/05 12:34:45;;;;;;;16.00;10.77;;;26.70;41.60;;;;;;5056259;28;20035;-75
2022/05/05 12:37:11;;;;;;;15.77;9.45;;;26.40;41.80;;;;;;5055813;28;20177;-76
2022/05/05 12:39:58;;;;;;;11.80;7.07;;;26.40;42.20;;;;;;5073096;28;20042;-75
2022/05/05 12:42:36;;;;;;;11.20;7.38;;;26.40;42.20;;;;;;5073923;28;20029;-75
2022/05/05 12:45:02;;;;;;;12.10;8.48;;;26.50;42.10;;;;;;5057920;28;20016;-75
2022/05/05 12:47:28;;;;;;;11.38;8.45;;;26.60;41.80;;;;;;5055716;28;20503;-77
2022/05/05 12:49:53;;;;;;;13.38;9.00;;;26.80;41.90;;;;;;5056363;28;20038;-76
2022/05/05 13:00:52;;;;;;;11.25;7.03;;;27.20;41.30;;;;;;5073723;28;20040;-76
2022/05/05 13:03:18;;;;;;;9.80;6.72;;;27.50;41.10;;;;;;5073285;28;20041;-75
2022/05/05 13:05:46;;;;;;;9.52;7.13;;;27.80;41.00;;;;;;5055999;28;20035;-76
2022/05/05 13:08:12;;;;;;;8.80;5.40;;;28.20;41.20;;;;;;5055826;28;20161;-76
2022/05/05 13:10:37;;;;;;;6.65;4.03;;;28.50;40.90;;;;;;5056136;28;20119;-76
2022/05/05 13:13:03;;;;;;;8.05;5.32;;;28.80;39.70;;;;;;5039139;28;20036;-75
2022/05/05 13:15:29;;;;;;;8.50;5.65;;;29.20;39.30;;;;;;5073370;28;20071;-77
2022/05/05 13:17:54;;;;;;;9.18;4.97;;;29.70;38.70;;;;;;5055290;28;20439;-78
2022/05/05 13:20:20;;;;;;;8.93;5.20;;;30.10;38.30;;;;;;5038670;28;20479;-77
2022/05/05 13:22:45;;;;;;;6.43;5.00;;;30.50;37.40;;;;;;5073452;28;20117;-75
2022/05/05 13:25:11;;;;;;;8.68;5.47;;;30.60;37.30;;;;;;5038862;28;20389;-76
2022/05/05 13:27:38;;;;;;;6.85;4.85;;;30.80;37.40;;;;;;5073563;28;20052;-76
2022/05/05 13:30:05;;;;;;;6.35;4.30;;;31.00;37.00;;;;;;5055585;28;20049;-75
2022/05/05 13:32:30;;;;;;;10.85;6.47;;;31.40;36.60;;;;;;5038626;28;20029;-76
2022/05/05 13:34:56;;;;;;;7.60;4.57;;;31.60;35.90;;;;;;5055469;28;20031;-76
2022/05/05 13:37:22;;;;;;;11.43;5.45;;;31.70;35.80;;;;;;5073718;28;20025;-77